sensor_id;sensor_type;location;lat;lon;timestamp;temperature;humidity
83500;DHT22;73433;50.908;13.746;2024-01-27T00:00:51;3.60;84.80
83500;DHT22;73433;50.908;13.746;2024-01-27T00:03:18;3.60;84.90
83500;DHT22;73433;50.908;13.746;2024-01-27T00:05:45;3.60;85.40
83500;DHT22;73433;50.908;13.746;2024-01-27T00:08:13;3.50;85.80
83500;DHT22;73433;50.908;13.746;2024-01-27T00:10:40;3.50;86.10
83500;DHT22;73433;50.908;13.746;2024-01-27T00:13:07;3.50;86.40
83500;DHT22;73433;50.908;13.746;2024-01-27T00:15:34;3.60;86.20
83500;DHT22;73433;50.908;13.746;2024-01-27T00:18:02;3.60;86.30
83500;DHT22;73433;50.908;13.746;2024-01-27T00:20:29;3.60;87.00
83500;DHT22;73433;50.908;13.746;2024-01-27T00:22:56;3.60;85.90
83500;DHT22;73433;50.908;13.746;2024-01-27T00:25:24;3.60;85.70
83500;DHT22;73433;50.908;13.746;2024-01-27T00:27:51;3.60;85.30
83500;DHT22;73433;50.908;13.746;2024-01-27T00:30:18;3.50;84.60
83500;DHT22;73433;50.908;13.746;2024-01-27T00:32:45;3.50;83.90
83500;DHT22;73433;50.908;13.746;2024-01-27T00:35:13;3.50;83.10
83500;DHT22;73433;50.908;13.746;2024-01-27T00:37:41;3.50;83.10
83500;DHT22;73433;50.908;13.746;2024-01-27T00:40:12;3.50;83.50
83500;DHT22;73433;50.908;13.746;2024-01-27T00:42:40;3.50;84.00
83500;DHT22;73433;50.908;13.746;2024-01-27T00:45:08;3.50;84.20
83500;DHT22;73433;50.908;13.746;2024-01-27T00:47:35;3.50;84.30
83500;DHT22;73433;50.908;13.746;2024-01-27T00:50:03;3.40;84.40
83500;DHT22;73433;50.908;13.746;2024-01-27T00:52:30;3.40;84.30
83500;DHT22;73433;50.908;13.746;2024-01-27T00:54:57;3.40;84.30
83500;DHT22;73433;50.908;13.746;2024-01-27T00:57:24;3.40;84.30
83500;DHT22;73433;50.908;13.746;2024-01-27T00:59:52;3.40;84.20
83500;DHT22;73433;50.908;13.746;2024-01-27T01:02:19;3.30;84.30
83500;DHT22;73433;50.908;13.746;2024-01-27T01:04:46;3.30;83.80
83500;DHT22;73433;50.908;13.746;2024-01-27T01:07:15;3.30;83.60
83500;DHT22;73433;50.908;13.746;2024-01-27T01:09:42;3.30;83.70
83500;DHT22;73433;50.908;13.746;2024-01-27T01:12:09;3.30;83.90
83500;DHT22;73433;50.908;13.746;2024-01-27T01:14:36;3.30;84.20
83500;DHT22;73433;50.908;13.746;2024-01-27T01:17:04;3.30;84.60
83500;DHT22;73433;50.908;13.746;2024-01-27T01:19:32;3.30;84.70
83500;DHT22;73433;50.908;13.746;2024-01-27T01:21:59;3.30;84.90
83500;DHT22;73433;50.908;13.746;2024-01-27T01:24:26;3.30;85.10
83500;DHT22;73433;50.908;13.746;2024-01-27T01:26:53;3.20;85.20
83500;DHT22;73433;50.908;13.746;2024-01-27T01:29:20;3.20;85.50
83500;DHT22;73433;50.908;13.746;2024-01-27T01:31:49;3.20;85.60
83500;DHT22;73433;50.908;13.746;2024-01-27T01:34:16;3.20;85.70
83500;DHT22;73433;50.908;13.746;2024-01-27T01:36:43;3.10;85.90
83500;DHT22;73433;50.908;13.746;2024-01-27T01:39:12;3.20;85.90
83500;DHT22;73433;50.908;13.746;2024-01-27T01:41:42;3.10;85.90
83500;DHT22;73433;50.908;13.746;2024-01-27T01:44:09;3.10;85.90
83500;DHT22;73433;50.908;13.746;2024-01-27T01:46:36;3.10;85.90
83500;DHT22;73433;50.908;13.746;2024-01-27T01:49:04;3.10;85.80
83500;DHT22;73433;50.908;13.746;2024-01-27T01:51:31;3.10;85.70
83500;DHT22;73433;50.908;13.746;2024-01-27T01:53:59;3.00;85.60
83500;DHT22;73433;50.908;13.746;2024-01-27T01:56:27;3.00;85.70
83500;DHT22;73433;50.908;13.746;2024-01-27T01:58:54;3.00;85.50
83500;DHT22;73433;50.908;13.746;2024-01-27T02:01:22;3.00;85.40
83500;DHT22;73433;50.908;13.746;2024-01-27T02:03:54;2.90;85.30
83500;DHT22;73433;50.908;13.746;2024-01-27T02:06:21;3.00;85.30
83500;DHT22;73433;50.908;13.746;2024-01-27T02:08:49;2.90;85.10
83500;DHT22;73433;50.908;13.746;2024-01-27T02:11:17;3.00;85.10
83500;DHT22;73433;50.908;13.746;2024-01-27T02:13:44;3.00;85.10
83500;DHT22;73433;50.908;13.746;2024-01-27T02:16:11;2.90;85.00
83500;DHT22;73433;50.908;13.746;2024-01-27T02:18:38;2.90;85.10
83500;DHT22;73433;50.908;13.746;2024-01-27T02:21:06;2.80;85.00
83500;DHT22;73433;50.908;13.746;2024-01-27T02:23:33;2.80;84.90
83500;DHT22;73433;50.908;13.746;2024-01-27T02:26:01;2.90;84.80
83500;DHT22;73433;50.908;13.746;2024-01-27T02:28:28;2.80;84.50
83500;DHT22;73433;50.908;13.746;2024-01-27T02:30:59;2.80;84.50
83500;DHT22;73433;50.908;13.746;2024-01-27T02:33:30;2.80;84.20
83500;DHT22;73433;50.908;13.746;2024-01-27T02:35:58;2.80;84.10
83500;DHT22;73433;50.908;13.746;2024-01-27T02:38:25;2.80;84.20
83500;DHT22;73433;50.908;13.746;2024-01-27T02:40:52;2.80;83.90
83500;DHT22;73433;50.908;13.746;2024-01-27T02:43:19;2.80;83.70
83500;DHT22;73433;50.908;13.746;2024-01-27T02:45:47;2.70;83.70
83500;DHT22;73433;50.908;13.746;2024-01-27T02:48:14;2.70;83.70
83500;DHT22;73433;50.908;13.746;2024-01-27T02:50:41;2.70;83.70
83500;DHT22;73433;50.908;13.746;2024-01-27T02:53:08;2.60;83.50
83500;DHT22;73433;50.908;13.746;2024-01-27T02:55:35;2.60;83.60
83500;DHT22;73433;50.908;13.746;2024-01-27T02:58:03;2.60;83.50
83500;DHT22;73433;50.908;13.746;2024-01-27T03:00:30;2.60;83.40
83500;DHT22;73433;50.908;13.746;2024-01-27T03:02:57;2.60;83.50
83500;DHT22;73433;50.908;13.746;2024-01-27T03:05:26;2.60;83.60
83500;DHT22;73433;50.908;13.746;2024-01-27T03:07:53;2.60;83.60
83500;DHT22;73433;50.908;13.746;2024-01-27T03:10:20;2.60;83.50
83500;DHT22;73433;50.908;13.746;2024-01-27T03:12:47;2.60;83.40
83500;DHT22;73433;50.908;13.746;2024-01-27T03:15:15;2.50;83.40
83500;DHT22;73433;50.908;13.746;2024-01-27T03:17:42;2.50;83.40
83500;DHT22;73433;50.908;13.746;2024-01-27T03:20:10;2.50;83.20
83500;DHT22;73433;50.908;13.746;2024-01-27T03:22:37;2.50;83.40
83500;DHT22;73433;50.908;13.746;2024-01-27T03:25:06;2.50;83.20
83500;DHT22;73433;50.908;13.746;2024-01-27T03:27:34;2.50;83.40
83500;DHT22;73433;50.908;13.746;2024-01-27T03:30:03;2.50;83.20
83500;DHT22;73433;50.908;13.746;2024-01-27T03:32:30;2.50;83.10
83500;DHT22;73433;50.908;13.746;2024-01-27T03:35:02;2.50;84.00
83500;DHT22;73433;50.908;13.746;2024-01-27T03:37:30;2.50;83.00
83500;DHT22;73433;50.908;13.746;2024-01-27T03:39:57;2.50;82.90
83500;DHT22;73433;50.908;13.746;2024-01-27T03:42:24;2.50;82.80
83500;DHT22;73433;50.908;13.746;2024-01-27T03:44:52;2.40;82.60
83500;DHT22;73433;50.908;13.746;2024-01-27T03:47:20;2.40;82.80
83500;DHT22;73433;50.908;13.746;2024-01-27T03:49:47;2.40;82.80
83500;DHT22;73433;50.908;13.746;2024-01-27T03:52:15;2.40;82.80
83500;DHT22;73433;50.908;13.746;2024-01-27T03:54:42;2.40;82.60
83500;DHT22;73433;50.908;13.746;2024-01-27T03:57:09;2.40;82.30
83500;DHT22;73433;50.908;13.746;2024-01-27T03:59:37;2.40;82.30
83500;DHT22;73433;50.908;13.746;2024-01-27T04:02:06;2.40;82.10
83500;DHT22;73433;50.908;13.746;2024-01-27T04:04:34;2.40;82.30
83500;DHT22;73433;50.908;13.746;2024-01-27T04:07:01;2.40;82.40
83500;DHT22;73433;50.908;13.746;2024-01-27T04:09:28;2.50;82.30
83500;DHT22;73433;50.908;13.746;2024-01-27T04:11:56;2.50;82.30
83500;DHT22;73433;50.908;13.746;2024-01-27T04:14:23;2.50;82.30
83500;DHT22;73433;50.908;13.746;2024-01-27T04:16:51;2.50;82.30
83500;DHT22;73433;50.908;13.746;2024-01-27T04:19:18;2.50;82.10
83500;DHT22;73433;50.908;13.746;2024-01-27T04:21:45;2.50;82.00
83500;DHT22;73433;50.908;13.746;2024-01-27T04:24:12;2.50;82.30
83500;DHT22;73433;50.908;13.746;2024-01-27T04:26:40;2.50;82.30
83500;DHT22;73433;50.908;13.746;2024-01-27T04:29:07;2.50;82.10
83500;DHT22;73433;50.908;13.746;2024-01-27T04:31:39;2.50;82.20
83500;DHT22;73433;50.908;13.746;2024-01-27T04:34:07;2.50;82.50
83500;DHT22;73433;50.908;13.746;2024-01-27T04:36:34;2.50;82.50
83500;DHT22;73433;50.908;13.746;2024-01-27T04:39:01;2.50;82.40
83500;DHT22;73433;50.908;13.746;2024-01-27T04:41:28;2.50;82.50
83500;DHT22;73433;50.908;13.746;2024-01-27T04:43:56;2.50;82.60
83500;DHT22;73433;50.908;13.746;2024-01-27T04:46:24;2.50;82.50
83500;DHT22;73433;50.908;13.746;2024-01-27T04:48:51;2.50;82.60
83500;DHT22;73433;50.908;13.746;2024-01-27T04:51:19;2.50;82.60
83500;DHT22;73433;50.908;13.746;2024-01-27T04:53:46;2.50;82.80
83500;DHT22;73433;50.908;13.746;2024-01-27T04:56:13;2.40;82.70
83500;DHT22;73433;50.908;13.746;2024-01-27T04:58:41;2.40;82.80
83500;DHT22;73433;50.908;13.746;2024-01-27T05:01:08;2.40;82.90
83500;DHT22;73433;50.908;13.746;2024-01-27T05:03:35;2.40;82.90
83500;DHT22;73433;50.908;13.746;2024-01-27T05:06:03;2.40;83.10
83500;DHT22;73433;50.908;13.746;2024-01-27T05:08:34;2.30;83.20
83500;DHT22;73433;50.908;13.746;2024-01-27T05:11:02;2.30;83.30
83500;DHT22;73433;50.908;13.746;2024-01-27T05:13:29;2.30;83.50
83500;DHT22;73433;50.908;13.746;2024-01-27T05:15:56;2.40;84.20
83500;DHT22;73433;50.908;13.746;2024-01-27T05:18:23;2.30;83.20
83500;DHT22;73433;50.908;13.746;2024-01-27T05:20:51;2.30;83.30
83500;DHT22;73433;50.908;13.746;2024-01-27T05:23:18;2.30;83.50
83500;DHT22;73433;50.908;13.746;2024-01-27T05:25:45;2.30;83.50
83500;DHT22;73433;50.908;13.746;2024-01-27T05:28:13;2.20;83.30
83500;DHT22;73433;50.908;13.746;2024-01-27T05:30:40;2.20;83.50
83500;DHT22;73433;50.908;13.746;2024-01-27T05:33:07;2.20;83.70
83500;DHT22;73433;50.908;13.746;2024-01-27T05:35:35;2.30;84.00
83500;DHT22;73433;50.908;13.746;2024-01-27T05:38:02;2.30;84.00
83500;DHT22;73433;50.908;13.746;2024-01-27T05:40:29;2.30;84.00
83500;DHT22;73433;50.908;13.746;2024-01-27T05:42:56;2.30;83.90
83500;DHT22;73433;50.908;13.746;2024-01-27T05:45:24;2.30;83.90
83500;DHT22;73433;50.908;13.746;2024-01-27T05:47:51;2.30;84.00
83500;DHT22;73433;50.908;13.746;2024-01-27T05:50:18;2.40;83.80
83500;DHT22;73433;50.908;13.746;2024-01-27T05:52:45;2.40;83.80
83500;DHT22;73433;50.908;13.746;2024-01-27T05:55:13;2.40;83.70
83500;DHT22;73433;50.908;13.746;2024-01-27T05:57:40;2.40;83.60
83500;DHT22;73433;50.908;13.746;2024-01-27T06:00:07;2.40;83.60
83500;DHT22;73433;50.908;13.746;2024-01-27T06:02:36;2.40;83.70
83500;DHT22;73433;50.908;13.746;2024-01-27T06:05:04;2.40;83.50
83500;DHT22;73433;50.908;13.746;2024-01-27T06:07:31;2.40;83.50
83500;DHT22;73433;50.908;13.746;2024-01-27T06:09:58;2.40;83.50
83500;DHT22;73433;50.908;13.746;2024-01-27T06:12:26;2.40;83.70
83500;DHT22;73433;50.908;13.746;2024-01-27T06:14:53;2.40;83.70
83500;DHT22;73433;50.908;13.746;2024-01-27T06:17:20;2.40;83.50
83500;DHT22;73433;50.908;13.746;2024-01-27T06:19:47;2.40;83.50
83500;DHT22;73433;50.908;13.746;2024-01-27T06:22:15;2.40;83.80
83500;DHT22;73433;50.908;13.746;2024-01-27T06:24:43;2.40;83.90
83500;DHT22;73433;50.908;13.746;2024-01-27T06:27:11;2.40;83.90
83500;DHT22;73433;50.908;13.746;2024-01-27T06:29:39;2.40;83.50
83500;DHT22;73433;50.908;13.746;2024-01-27T06:32:07;2.40;83.50
83500;DHT22;73433;50.908;13.746;2024-01-27T06:34:39;2.40;83.50
83500;DHT22;73433;50.908;13.746;2024-01-27T06:37:06;2.40;83.80
83500;DHT22;73433;50.908;13.746;2024-01-27T06:39:33;2.40;83.70
83500;DHT22;73433;50.908;13.746;2024-01-27T06:42:01;2.40;83.60
83500;DHT22;73433;50.908;13.746;2024-01-27T06:44:28;2.40;84.50
83500;DHT22;73433;50.908;13.746;2024-01-27T06:46:55;2.40;83.70
83500;DHT22;73433;50.908;13.746;2024-01-27T06:49:23;2.40;83.90
83500;DHT22;73433;50.908;13.746;2024-01-27T06:51:50;2.40;83.90
83500;DHT22;73433;50.908;13.746;2024-01-27T06:54:17;2.40;84.00
83500;DHT22;73433;50.908;13.746;2024-01-27T06:56:45;2.40;83.90
83500;DHT22;73433;50.908;13.746;2024-01-27T06:59:12;2.40;84.00
83500;DHT22;73433;50.908;13.746;2024-01-27T07:01:46;2.40;84.00
83500;DHT22;73433;50.908;13.746;2024-01-27T07:04:15;2.40;84.00
83500;DHT22;73433;50.908;13.746;2024-01-27T07:06:42;2.40;83.90
83500;DHT22;73433;50.908;13.746;2024-01-27T07:09:10;2.50;83.90
83500;DHT22;73433;50.908;13.746;2024-01-27T07:11:38;2.50;83.70
83500;DHT22;73433;50.908;13.746;2024-01-27T07:14:05;2.50;83.50
83500;DHT22;73433;50.908;13.746;2024-01-27T07:16:33;2.50;83.50
83500;DHT22;73433;50.908;13.746;2024-01-27T07:19:01;2.50;83.40
83500;DHT22;73433;50.908;13.746;2024-01-27T07:21:29;2.50;83.40
83500;DHT22;73433;50.908;13.746;2024-01-27T07:23:58;2.60;83.50
83500;DHT22;73433;50.908;13.746;2024-01-27T07:26:25;2.60;83.30
83500;DHT22;73433;50.908;13.746;2024-01-27T07:28:53;2.70;83.20
83500;DHT22;73433;50.908;13.746;2024-01-27T07:31:20;2.70;83.10
83500;DHT22;73433;50.908;13.746;2024-01-27T07:33:48;2.70;82.90
83500;DHT22;73433;50.908;13.746;2024-01-27T07:36:15;2.70;82.60
83500;DHT22;73433;50.908;13.746;2024-01-27T07:38:43;2.70;82.50
83500;DHT22;73433;50.908;13.746;2024-01-27T07:41:10;2.80;82.50
83500;DHT22;73433;50.908;13.746;2024-01-27T07:43:37;2.80;82.60
83500;DHT22;73433;50.908;13.746;2024-01-27T07:46:04;2.80;82.60
83500;DHT22;73433;50.908;13.746;2024-01-27T07:48:32;2.80;82.20
83500;DHT22;73433;50.908;13.746;2024-01-27T07:50:59;2.90;82.30
83500;DHT22;73433;50.908;13.746;2024-01-27T07:53:26;2.90;82.50
83500;DHT22;73433;50.908;13.746;2024-01-27T07:55:54;3.00;82.30
83500;DHT22;73433;50.908;13.746;2024-01-27T07:58:23;3.00;82.10
83500;DHT22;73433;50.908;13.746;2024-01-27T08:00:50;3.00;82.00
83500;DHT22;73433;50.908;13.746;2024-01-27T08:03:17;3.00;81.80
83500;DHT22;73433;50.908;13.746;2024-01-27T08:05:45;3.00;81.80
83500;DHT22;73433;50.908;13.746;2024-01-27T08:08:12;3.10;82.00
83500;DHT22;73433;50.908;13.746;2024-01-27T08:10:39;3.10;82.10
83500;DHT22;73433;50.908;13.746;2024-01-27T08:13:07;3.20;82.10
83500;DHT22;73433;50.908;13.746;2024-01-27T08:15:34;3.50;82.60
83500;DHT22;73433;50.908;13.746;2024-01-27T08:18:02;3.60;81.20
83500;DHT22;73433;50.908;13.746;2024-01-27T08:20:29;3.70;80.40
83500;DHT22;73433;50.908;13.746;2024-01-27T08:22:56;3.60;80.00
83500;DHT22;73433;50.908;13.746;2024-01-27T08:25:24;3.60;80.00
83500;DHT22;73433;50.908;13.746;2024-01-27T08:27:51;3.60;80.00
83500;DHT22;73433;50.908;13.746;2024-01-27T08:30:18;3.50;80.00
83500;DHT22;73433;50.908;13.746;2024-01-27T08:32:46;3.50;80.00
83500;DHT22;73433;50.908;13.746;2024-01-27T08:35:13;3.40;80.10
83500;DHT22;73433;50.908;13.746;2024-01-27T08:37:40;3.40;81.40
83500;DHT22;73433;50.908;13.746;2024-01-27T08:40:08;3.40;80.70
83500;DHT22;73433;50.908;13.746;2024-01-27T08:42:35;3.40;80.70
83500;DHT22;73433;50.908;13.746;2024-01-27T08:45:03;3.40;80.90
83500;DHT22;73433;50.908;13.746;2024-01-27T08:47:30;3.40;81.00
83500;DHT22;73433;50.908;13.746;2024-01-27T08:49:58;3.40;81.90
83500;DHT22;73433;50.908;13.746;2024-01-27T08:52:25;3.50;81.20
83500;DHT22;73433;50.908;13.746;2024-01-27T08:54:52;3.50;81.10
83500;DHT22;73433;50.908;13.746;2024-01-27T08:57:19;3.50;80.90
83500;DHT22;73433;50.908;13.746;2024-01-27T08:59:47;3.60;80.60
83500;DHT22;73433;50.908;13.746;2024-01-27T09:02:14;3.50;80.60
83500;DHT22;73433;50.908;13.746;2024-01-27T09:04:42;3.60;80.70
83500;DHT22;73433;50.908;13.746;2024-01-27T09:07:09;3.50;80.60
83500;DHT22;73433;50.908;13.746;2024-01-27T09:09:36;3.60;80.50
83500;DHT22;73433;50.908;13.746;2024-01-27T09:12:05;3.60;80.60
83500;DHT22;73433;50.908;13.746;2024-01-27T09:14:32;3.50;80.70
83500;DHT22;73433;50.908;13.746;2024-01-27T09:17:03;3.50;80.50
83500;DHT22;73433;50.908;13.746;2024-01-27T09:19:30;3.50;80.60
83500;DHT22;73433;50.908;13.746;2024-01-27T09:21:58;3.50;80.60
83500;DHT22;73433;50.908;13.746;2024-01-27T09:24:25;3.50;80.70
83500;DHT22;73433;50.908;13.746;2024-01-27T09:26:52;3.50;80.70
83500;DHT22;73433;50.908;13.746;2024-01-27T09:29:19;3.50;80.70
83500;DHT22;73433;50.908;13.746;2024-01-27T09:31:47;3.50;80.70
83500;DHT22;73433;50.908;13.746;2024-01-27T09:34:14;3.60;81.00
83500;DHT22;73433;50.908;13.746;2024-01-27T09:36:42;3.60;81.00
83500;DHT22;73433;50.908;13.746;2024-01-27T09:39:09;3.70;81.10
83500;DHT22;73433;50.908;13.746;2024-01-27T09:41:37;3.80;80.80
83500;DHT22;73433;50.908;13.746;2024-01-27T09:44:05;3.80;80.50
83500;DHT22;73433;50.908;13.746;2024-01-27T09:46:32;3.80;80.40
83500;DHT22;73433;50.908;13.746;2024-01-27T09:49:01;3.80;80.30
83500;DHT22;73433;50.908;13.746;2024-01-27T09:51:29;3.80;80.60
83500;DHT22;73433;50.908;13.746;2024-01-27T09:53:57;3.90;80.60
83500;DHT22;73433;50.908;13.746;2024-01-27T09:56:25;3.90;80.40
83500;DHT22;73433;50.908;13.746;2024-01-27T09:58:52;3.90;80.20
83500;DHT22;73433;50.908;13.746;2024-01-27T10:01:24;4.00;80.30
83500;DHT22;73433;50.908;13.746;2024-01-27T10:03:54;4.10;80.70
83500;DHT22;73433;50.908;13.746;2024-01-27T10:06:22;4.20;80.00
83500;DHT22;73433;50.908;13.746;2024-01-27T10:08:53;4.20;79.60
83500;DHT22;73433;50.908;13.746;2024-01-27T10:11:21;4.30;79.50
83500;DHT22;73433;50.908;13.746;2024-01-27T10:13:56;4.30;79.90
83500;DHT22;73433;50.908;13.746;2024-01-27T10:16:26;4.50;80.00
83500;DHT22;73433;50.908;13.746;2024-01-27T10:19:01;4.50;79.50
83500;DHT22;73433;50.908;13.746;2024-01-27T10:21:29;4.70;79.50
83500;DHT22;73433;50.908;13.746;2024-01-27T10:23:57;5.30;81.30
83500;DHT22;73433;50.908;13.746;2024-01-27T10:26:25;5.90;78.60
83500;DHT22;73433;50.908;13.746;2024-01-27T10:28:57;6.10;76.00
83500;DHT22;73433;50.908;13.746;2024-01-27T10:31:28;6.00;74.60
83500;DHT22;73433;50.908;13.746;2024-01-27T10:33:57;5.90;74.20
83500;DHT22;73433;50.908;13.746;2024-01-27T10:36:25;5.90;75.20
83500;DHT22;73433;50.908;13.746;2024-01-27T10:38:53;6.30;75.80
83500;DHT22;73433;50.908;13.746;2024-01-27T10:41:24;6.50;73.70
83500;DHT22;73433;50.908;13.746;2024-01-27T10:43:52;6.40;72.20
83500;DHT22;73433;50.908;13.746;2024-01-27T10:46:20;6.50;74.20
83500;DHT22;73433;50.908;13.746;2024-01-27T10:48:51;6.90;73.60
83500;DHT22;73433;50.908;13.746;2024-01-27T10:51:31;7.00;71.70
83500;DHT22;73433;50.908;13.746;2024-01-27T10:54:02;6.80;70.40
83500;DHT22;73433;50.908;13.746;2024-01-27T10:56:32;6.50;70.50
83500;DHT22;73433;50.908;13.746;2024-01-27T10:59:09;6.30;71.10
83500;DHT22;73433;50.908;13.746;2024-01-27T11:01:39;6.10;71.90
83500;DHT22;73433;50.908;13.746;2024-01-27T11:04:08;6.40;73.50
83500;DHT22;73433;50.908;13.746;2024-01-27T11:06:38;6.50;72.20
83500;DHT22;73433;50.908;13.746;2024-01-27T11:09:08;6.70;72.50
83500;DHT22;73433;50.908;13.746;2024-01-27T11:11:35;6.80;71.30
83500;DHT22;73433;50.908;13.746;2024-01-27T11:14:03;7.00;71.10
83500;DHT22;73433;50.908;13.746;2024-01-27T11:16:34;7.20;70.80
83500;DHT22;73433;50.908;13.746;2024-01-27T11:19:02;7.10;69.40
83500;DHT22;73433;50.908;13.746;2024-01-27T11:21:29;7.00;69.80
83500;DHT22;73433;50.908;13.746;2024-01-27T11:23:56;7.20;70.20
83500;DHT22;73433;50.908;13.746;2024-01-27T11:26:24;7.10;69.10
83500;DHT22;73433;50.908;13.746;2024-01-27T11:28:53;6.90;68.90
83500;DHT22;73433;50.908;13.746;2024-01-27T11:31:20;6.90;70.30
83500;DHT22;73433;50.908;13.746;2024-01-27T11:33:50;7.20;70.70
83500;DHT22;73433;50.908;13.746;2024-01-27T11:36:23;7.80;70.30
83500;DHT22;73433;50.908;13.746;2024-01-27T11:38:52;8.40;68.70
83500;DHT22;73433;50.908;13.746;2024-01-27T11:41:29;8.90;66.40
83500;DHT22;73433;50.908;13.746;2024-01-27T11:43:58;9.30;66.10
83500;DHT22;73433;50.908;13.746;2024-01-27T11:46:29;9.80;64.70
83500;DHT22;73433;50.908;13.746;2024-01-27T11:48:56;10.30;62.90
83500;DHT22;73433;50.908;13.746;2024-01-27T11:51:25;10.70;61.40
83500;DHT22;73433;50.908;13.746;2024-01-27T11:53:52;10.90;59.40
83500;DHT22;73433;50.908;13.746;2024-01-27T11:56:19;10.90;58.50
83500;DHT22;73433;50.908;13.746;2024-01-27T11:58:49;11.00;57.90
83500;DHT22;73433;50.908;13.746;2024-01-27T12:01:17;11.10;58.30
83500;DHT22;73433;50.908;13.746;2024-01-27T12:03:45;11.20;57.20
83500;DHT22;73433;50.908;13.746;2024-01-27T12:06:13;11.20;56.60
83500;DHT22;73433;50.908;13.746;2024-01-27T12:08:42;11.00;57.20
83500;DHT22;73433;50.908;13.746;2024-01-27T12:11:17;11.20;57.20
83500;DHT22;73433;50.908;13.746;2024-01-27T12:13:54;11.30;56.40
83500;DHT22;73433;50.908;13.746;2024-01-27T12:16:22;11.30;55.80
83500;DHT22;73433;50.908;13.746;2024-01-27T12:18:53;11.10;56.10
83500;DHT22;73433;50.908;13.746;2024-01-27T12:21:22;11.00;55.40
83500;DHT22;73433;50.908;13.746;2024-01-27T12:23:53;11.00;55.10
83500;DHT22;73433;50.908;13.746;2024-01-27T12:26:22;10.90;54.90
83500;DHT22;73433;50.908;13.746;2024-01-27T12:28:50;10.90;55.00
83500;DHT22;73433;50.908;13.746;2024-01-27T12:31:18;10.90;54.80
83500;DHT22;73433;50.908;13.746;2024-01-27T12:33:53;10.90;54.50
83500;DHT22;73433;50.908;13.746;2024-01-27T12:36:21;10.80;54.20
83500;DHT22;73433;50.908;13.746;2024-01-27T12:38:54;10.90;54.70
83500;DHT22;73433;50.908;13.746;2024-01-27T12:41:22;11.00;55.00
83500;DHT22;73433;50.908;13.746;2024-01-27T12:43:49;11.30;54.80
83500;DHT22;73433;50.908;13.746;2024-01-27T12:46:17;11.40;53.40
83500;DHT22;73433;50.908;13.746;2024-01-27T12:48:47;11.30;52.30
83500;DHT22;73433;50.908;13.746;2024-01-27T12:51:14;11.30;53.00
83500;DHT22;73433;50.908;13.746;2024-01-27T12:53:43;11.20;53.10
83500;DHT22;73433;50.908;13.746;2024-01-27T12:56:12;11.30;53.70
83500;DHT22;73433;50.908;13.746;2024-01-27T12:58:40;11.50;53.90
83500;DHT22;73433;50.908;13.746;2024-01-27T13:01:08;11.70;53.20
83500;DHT22;73433;50.908;13.746;2024-01-27T13:03:36;12.00;52.90
83500;DHT22;73433;50.908;13.746;2024-01-27T13:06:05;12.00;51.50
83500;DHT22;73433;50.908;13.746;2024-01-27T13:08:33;12.00;51.00
83500;DHT22;73433;50.908;13.746;2024-01-27T13:11:00;11.90;50.70
83500;DHT22;73433;50.908;13.746;2024-01-27T13:13:28;11.80;50.40
83500;DHT22;73433;50.908;13.746;2024-01-27T13:15:55;11.60;50.30
83500;DHT22;73433;50.908;13.746;2024-01-27T13:18:22;11.40;50.60
83500;DHT22;73433;50.908;13.746;2024-01-27T13:20:49;11.30;50.90
83500;DHT22;73433;50.908;13.746;2024-01-27T13:23:17;11.30;51.30
83500;DHT22;73433;50.908;13.746;2024-01-27T13:25:44;11.20;51.20
83500;DHT22;73433;50.908;13.746;2024-01-27T13:28:28;11.10;51.50
83500;DHT22;73433;50.908;13.746;2024-01-27T13:30:55;11.00;51.20
83500;DHT22;73433;50.908;13.746;2024-01-27T13:33:23;11.00;51.80
83500;DHT22;73433;50.908;13.746;2024-01-27T13:35:55;10.90;52.20
83500;DHT22;73433;50.908;13.746;2024-01-27T13:38:22;11.00;51.90
83500;DHT22;73433;50.908;13.746;2024-01-27T13:40:50;11.10;52.50
83500;DHT22;73433;50.908;13.746;2024-01-27T13:43:18;11.30;52.10
83500;DHT22;73433;50.908;13.746;2024-01-27T13:45:45;11.30;51.40
83500;DHT22;73433;50.908;13.746;2024-01-27T13:48:14;11.20;51.40
83500;DHT22;73433;50.908;13.746;2024-01-27T13:50:43;11.10;51.30
83500;DHT22;73433;50.908;13.746;2024-01-27T13:53:10;11.10;51.20
83500;DHT22;73433;50.908;13.746;2024-01-27T13:55:37;11.00;51.30
83500;DHT22;73433;50.908;13.746;2024-01-27T13:58:06;11.00;51.20
83500;DHT22;73433;50.908;13.746;2024-01-27T14:00:34;10.90;51.50
83500;DHT22;73433;50.908;13.746;2024-01-27T14:03:03;10.80;51.40
83500;DHT22;73433;50.908;13.746;2024-01-27T14:05:30;10.60;52.10
83500;DHT22;73433;50.908;13.746;2024-01-27T14:07:58;10.70;52.40
83500;DHT22;73433;50.908;13.746;2024-01-27T14:10:26;10.80;52.50
83500;DHT22;73433;50.908;13.746;2024-01-27T14:12:53;10.90;52.50
83500;DHT22;73433;50.908;13.746;2024-01-27T14:15:20;10.90;52.40
83500;DHT22;73433;50.908;13.746;2024-01-27T14:17:48;10.80;52.40
83500;DHT22;73433;50.908;13.746;2024-01-27T14:20:15;10.80;52.20
83500;DHT22;73433;50.908;13.746;2024-01-27T14:22:43;10.80;52.70
83500;DHT22;73433;50.908;13.746;2024-01-27T14:25:10;10.80;52.70
83500;DHT22;73433;50.908;13.746;2024-01-27T14:27:38;10.50;52.30
83500;DHT22;73433;50.908;13.746;2024-01-27T14:30:06;10.20;52.30
83500;DHT22;73433;50.908;13.746;2024-01-27T14:32:34;9.90;52.90
83500;DHT22;73433;50.908;13.746;2024-01-27T14:35:01;9.50;53.50
83500;DHT22;73433;50.908;13.746;2024-01-27T14:37:33;9.10;54.20
83500;DHT22;73433;50.908;13.746;2024-01-27T14:40:00;8.70;55.10
83500;DHT22;73433;50.908;13.746;2024-01-27T14:42:27;8.40;56.10
83500;DHT22;73433;50.908;13.746;2024-01-27T14:44:58;8.20;56.90
83500;DHT22;73433;50.908;13.746;2024-01-27T14:47:26;8.00;57.90
83500;DHT22;73433;50.908;13.746;2024-01-27T14:49:54;7.70;58.50
83500;DHT22;73433;50.908;13.746;2024-01-27T14:52:21;7.50;59.40
83500;DHT22;73433;50.908;13.746;2024-01-27T14:54:50;7.30;59.90
83500;DHT22;73433;50.908;13.746;2024-01-27T14:57:17;7.10;60.80
83500;DHT22;73433;50.908;13.746;2024-01-27T14:59:45;6.90;61.40
83500;DHT22;73433;50.908;13.746;2024-01-27T15:02:12;6.80;61.90
83500;DHT22;73433;50.908;13.746;2024-01-27T15:04:39;6.70;62.60
83500;DHT22;73433;50.908;13.746;2024-01-27T15:07:07;6.60;63.00
83500;DHT22;73433;50.908;13.746;2024-01-27T15:09:36;6.40;63.60
83500;DHT22;73433;50.908;13.746;2024-01-27T15:12:03;6.30;64.40
83500;DHT22;73433;50.908;13.746;2024-01-27T15:14:30;6.10;64.70
83500;DHT22;73433;50.908;13.746;2024-01-27T15:16:59;6.00;65.30
83500;DHT22;73433;50.908;13.746;2024-01-27T15:19:26;5.90;65.80
83500;DHT22;73433;50.908;13.746;2024-01-27T15:22:00;5.90;66.40
83500;DHT22;73433;50.908;13.746;2024-01-27T15:24:27;5.80;66.90
83500;DHT22;73433;50.908;13.746;2024-01-27T15:26:56;5.70;67.20
83500;DHT22;73433;50.908;13.746;2024-01-27T15:29:37;5.60;67.60
83500;DHT22;73433;50.908;13.746;2024-01-27T15:32:04;5.50;68.10